Time;durP1;ratioP1;P1;durP2;ratioP2;P2;SDS_P1;SDS_P2;PMS_P1;PMS_P2;Temp;Humidity;BMP_temperature;BMP_pressure;BME280_temperature;BME280_humidity;BME280_pressure;Samples;Min_cycle;Max_cycle;Signal;HPM_P1;HPM_P2
2022/12/19 00:02:02;;;;;;;;;16.00;16.00;;;;;5.59;80.26;101593.13;5035394;28;45656;-83
2022/12/19 00:04:27;;;;;;;;;17.75;14.75;;;;;5.60;80.24;101597.44;5023269;28;57226;-84
2022/12/19 00:06:56;;;;;;;;;17.00;15.50;;;;;5.61;80.65;101591.44;5024565;28;45306;-83
2022/12/19 00:09:21;;;;;;;;;22.25;16.50;;;;;5.61;80.54;101590.56;5042295;28;45428;-84
2022/12/19 00:11:47;;;;;;;;;17.75;15.25;;;;;5.60;80.14;101566.44;5007349;28;54603;-84
2022/12/19 00:14:12;;;;;;;;;17.75;15.50;;;;;5.60;80.31;101571.59;5024009;28;45469;-83
2022/12/19 00:16:38;;;;;;;;;25.75;15.75;;;;;5.61;80.83;101577.66;5041593;28;62303;-84
2022/12/19 00:19:03;;;;;;;;;22.75;17.00;;;;;5.65;79.91;101566.47;5023861;28;55424;-84
2022/12/19 00:21:31;;;;;;;;;14.50;14.00;;;;;5.63;80.33;101553.56;5023422;28;46346;-83
2022/12/19 00:23:57;;;;;;;;;23.50;14.00;;;;;5.65;80.64;101575.97;5041843;28;45325;-84
2022/12/19 00:26:25;;;;;;;;;21.25;14.00;;;;;5.67;80.45;101569.06;5023710;28;52007;-83
2022/12/19 00:28:57;;;;;;;;;17.75;12.75;;;;;5.67;80.77;101587.16;5023905;28;45600;-83
2022/12/19 00:31:23;;;;;;;;;18.25;13.75;;;;;5.69;80.59;101583.72;5023977;28;47554;-83
2022/12/19 00:33:49;;;;;;;;;19.25;15.25;;;;;5.69;80.54;101557.88;5024201;28;45946;-84
2022/12/19 00:36:17;;;;;;;;;14.50;11.25;;;;;5.69;80.69;101572.53;5024219;28;45321;-83
2022/12/19 00:38:43;;;;;;;;;23.75;17.00;;;;;5.71;81.02;101556.16;5024058;28;45548;-83
2022/12/19 00:41:10;;;;;;;;;25.00;13.50;;;;;5.73;80.78;101559.63;5023967;28;46197;-84
2022/12/19 00:43:36;;;;;;;;;20.50;15.25;;;;;5.74;80.93;101553.59;5023325;28;45697;-83
2022/12/19 00:46:03;;;;;;;;;7.50;7.50;;;;;5.76;80.40;101541.56;5041900;28;45394;-84
2022/12/19 00:48:29;;;;;;;;;22.75;13.50;;;;;5.75;80.83;101528.63;5024069;28;45448;-84
2022/12/19 00:51:02;;;;;;;;;9.50;8.75;;;;;5.77;80.99;101532.06;5023628;28;46349;-84
2022/12/19 00:53:27;;;;;;;;;18.25;12.50;;;;;5.78;80.95;101537.25;5041683;28;45854;-84
2022/12/19 00:55:53;;;;;;;;;13.25;9.25;;;;;5.80;81.09;101551.03;5023557;28;45524;-84
2022/12/19 00:58:18;;;;;;;;;15.00;14.50;;;;;5.81;81.09;101526.94;5041016;28;55072;-84
2022/12/19 01:00:43;;;;;;;;;21.00;11.75;;;;;5.84;80.39;101522.63;5022970;28;66305;-84
2022/12/19 01:03:09;;;;;;;;;16.00;13.25;;;;;5.85;80.67;101529.50;5023353;28;48356;-83
2022/12/19 01:05:34;;;;;;;;;18.50;10.50;;;;;5.85;81.07;101521.75;5023813;28;45310;-84
2022/12/19 01:08:00;;;;;;;;;17.00;14.25;;;;;5.89;80.62;101528.66;5022738;28;67836;-84
2022/12/19 01:10:25;;;;;;;;;17.00;13.50;;;;;5.89;80.74;101523.50;5040758;28;66848;-84
2022/12/19 01:12:50;;;;;;;;;14.25;9.75;;;;;5.93;80.88;101528.69;5022780;28;60316;-84
2022/12/19 01:15:21;;;;;;;;;11.75;8.00;;;;;5.96;80.98;101520.09;5020135;28;50241;-84
2022/12/19 01:17:47;;;;;;;;;12.50;9.25;;;;;5.98;80.62;101518.38;5038365;28;45373;-84
2022/12/19 01:20:18;;;;;;;;;14.00;12.50;;;;;5.99;80.77;101526.16;5020059;28;47185;-84
2022/12/19 01:22:44;;;;;;;;;13.00;9.75;;;;;6.00;80.76;101538.22;5020120;28;45358;-83
2022/12/19 01:25:10;;;;;;;;;14.00;11.25;;;;;6.03;80.80;101532.19;5020397;28;45410;-84
2022/12/19 01:27:36;;;;;;;;;15.00;11.75;;;;;6.03;80.58;101519.25;5037849;28;45514;-84
2022/12/19 01:30:02;;;;;;;;;13.00;10.25;;;;;6.06;81.25;101547.72;5037891;28;47012;-83
2022/12/19 01:32:27;;;;;;;;;10.50;9.25;;;;;6.10;80.98;101527.91;5020099;28;45379;-84
2022/12/19 01:34:53;;;;;;;;;15.00;9.75;;;;;6.12;80.92;101545.13;5020083;28;45422;-84
2022/12/19 01:37:19;;;;;;;;;15.25;10.00;;;;;6.17;81.24;101514.13;5003703;28;45608;-84
2022/12/19 01:39:44;;;;;;;;;14.50;9.50;;;;;6.19;80.82;101546.88;5037749;28;46642;-84
2022/12/19 01:42:19;;;;;;;;;10.75;10.50;;;;;6.27;80.74;101499.50;5019301;28;45427;-84
2022/12/19 01:45:06;;;;;;;;;12.75;8.75;;;;;6.32;80.57;101523.63;5020058;28;45337;-84
2022/12/19 01:47:34;;;;;;;;;14.75;10.50;;;;;6.36;80.58;101522.78;5038023;28;45563;-84
2022/12/19 01:50:00;;;;;;;;;14.25;11.50;;;;;6.41;80.20;101513.31;5019698;28;46057;-84
2022/12/19 01:52:26;;;;;;;;;11.25;8.00;;;;;6.46;80.05;101534.84;5037604;28;45886;-84
2022/12/19 01:54:51;;;;;;;;;15.00;12.00;;;;;6.50;80.12;101499.50;5036739;28;54292;-84
2022/12/19 01:57:18;;;;;;;;;8.00;8.00;;;;;6.54;79.82;101527.09;5019359;28;52426;-84
2022/12/19 01:59:53;;;;;;;;;17.75;11.50;;;;;6.59;79.48;101522.78;5002830;28;53938;-84
2022/12/19 02:02:23;;;;;;;;;12.75;9.00;;;;;6.61;79.60;101543.47;5019639;28;45377;-84
2022/12/19 02:04:49;;;;;;;;;12.75;11.75;;;;;6.63;79.92;101534.00;5019301;28;45445;-84
2022/12/19 02:07:16;;;;;;;;;14.25;9.25;;;;;6.63;79.64;101528.81;5019218;28;54734;-84
2022/12/19 02:09:45;;;;;;;;;14.00;10.00;;;;;6.64;79.91;101536.59;5019062;28;46121;-84
2022/12/19 02:12:11;;;;;;;;;15.00;8.25;;;;;6.66;79.64;101515.88;5019532;28;45907;-84
2022/12/19 02:14:37;;;;;;;;;11.25;7.00;;;;;6.65;79.80;101530.56;5019467;28;45402;-84
2022/12/19 02:17:23;;;;;;;;;9.50;8.50;;;;;6.66;79.95;101519.31;5018992;28;54098;-83
2022/12/19 02:20:11;;;;;;;;;13.75;8.00;;;;;6.68;79.70;101535.72;5019302;28;46490;-84
2022/12/19 02:23:07;;;;;;;;;15.25;8.75;;;;;6.72;79.66;101523.63;5019157;28;45872;-83
2022/12/19 02:25:42;;;;;;;;;14.00;11.00;;;;;6.73;79.78;101515.88;5018119;28;45399;-85
2022/12/19 02:28:34;;;;;;;;;11.25;8.75;;;;;6.75;80.00;101521.91;5036926;28;45357;-84
2022/12/19 02:31:15;;;;;;;;;11.50;8.50;;;;;6.77;79.70;101527.09;5019064;28;46552;-84
2022/12/19 02:34:10;;;;;;;;;8.75;8.50;;;;;6.78;80.18;101518.47;5002545;28;45795;-84
2022/12/19 02:36:49;;;;;;;;;13.50;8.25;;;;;6.78;80.17;101521.06;5002602;28;45552;-84
2022/12/19 02:39:21;;;;;;;;;5.00;5.00;;;;;6.80;80.58;101529.69;5018767;28;45387;-84
2022/12/19 02:41:50;;;;;;;;;11.25;8.75;;;;;6.82;79.93;101520.19;5018994;28;46699;-84
2022/12/19 02:44:32;;;;;;;;;11.25;8.00;;;;;6.86;80.13;101519.31;5018873;28;45305;-84
2022/12/19 02:46:59;;;;;;;;;11.50;9.00;;;;;6.89;80.03;101540.03;5019106;28;45378;-84
2022/12/19 02:49:27;;;;;;;;;9.00;9.00;;;;;6.91;80.44;101537.41;5018740;28;45425;-84
2022/12/19 02:51:53;;;;;;;;;13.50;9.00;;;;;6.93;80.18;101521.03;5036567;28;46286;-84
2022/12/19 02:54:18;;;;;;;;;8.25;6.25;;;;;6.95;80.58;101546.94;5018001;28;61327;-84
2022/12/19 02:56:56;;;;;;;;;8.50;5.00;;;;;6.98;80.29;101521.91;5018327;28;56730;-84
2022/12/19 02:59:54;;;;;;;;;7.00;7.00;;;;;7.00;80.65;101519.28;5018796;28;45482;-84
2022/12/19 03:02:40;;;;;;;;;12.00;7.00;;;;;6.97;80.83;101521.91;5028894;28;45770;-84
2022/12/19 03:05:30;;;;;;;;;14.00;7.75;;;;;7.00;80.58;101510.66;5018530;28;45858;-84
2022/12/19 03:08:02;;;;;;;;;10.00;8.00;;;;;7.02;80.83;101521.88;5036056;28;45316;-84
2022/12/19 03:10:27;;;;;;;;;10.25;9.00;;;;;7.04;81.04;101509.78;5018732;28;45566;-84
2022/12/19 03:12:56;;;;;;;;;5.67;5.67;;;;;7.04;81.04;101513.25;5036174;28;46400;-83
2022/12/19 03:15:23;;;;;;;;;12.50;8.25;;;;;7.03;82.06;101516.72;5018465;28;45958;-83
2022/12/19 03:17:49;;;;;;;;;6.50;5.00;;;;;7.05;81.45;101502.03;5018823;28;45408;-83
2022/12/19 03:20:21;;;;;;;;;11.25;5.50;;;;;7.09;81.90;101515.84;5017774;28;60499;-84
2022/12/19 03:22:46;;;;;;;;;7.00;5.25;;;;;7.15;82.11;101500.28;5035843;28;46849;-84
2022/12/19 03:25:12;;;;;;;;;9.50;6.00;;;;;7.24;82.13;101514.94;5036004;28;45447;-83
2022/12/19 03:27:38;;;;;;;;;9.00;6.00;;;;;7.33;82.17;101507.13;5018291;28;46875;-83
2022/12/19 03:30:08;;;;;;;;;8.25;6.00;;;;;7.41;81.91;101509.69;5017901;28;55186;-84
2022/12/19 03:32:35;;;;;;;;;11.00;5.50;;;;;7.44;81.81;101509.69;5018275;28;46159;-84
2022/12/19 03:35:05;;;;;;;;;9.00;8.00;;;;;7.46;81.81;101506.22;5018319;28;45515;-84
2022/12/19 03:37:33;;;;;;;;;8.50;6.00;;;;;7.47;82.08;101504.53;5000948;28;45442;-84
2022/12/19 03:40:01;;;;;;;;;6.75;5.00;;;;;7.48;82.07;101520.03;5018233;28;45564;-84
2022/12/19 03:45:13;;;;;;;;;10.25;6.25;;;;;7.45;80.53;101516.63;5020679;28;45878;-84
2022/12/19 03:47:47;;;;;;;;;11.50;8.00;;;;;7.38;80.92;101526.13;5018105;28;45515;-84
2022/12/19 03:50:13;;;;;;;;;15.25;9.00;;;;;7.32;80.81;101527.00;5001232;28;45338;-84
2022/12/19 03:52:59;;;;;;;;;14.00;9.25;;;;;7.27;81.47;101526.16;5016924;28;60846;-84
2022/12/19 03:55:48;;;;;;;;;9.75;8.00;;;;;7.22;80.88;101524.44;5034988;28;45345;-84
2022/12/19 03:58:34;;;;;;;;;14.50;10.50;;;;;7.18;80.85;101523.56;5018083;28;45511;-84
2022/12/19 04:01:00;;;;;;;;;10.50;8.00;;;;;7.15;80.77;101533.94;5017188;28;45433;-84
2022/12/19 04:03:27;;;;;;;;;11.75;7.75;;;;;7.12;80.78;101521.88;5035415;28;46659;-84
2022/12/19 04:05:54;;;;;;;;;12.75;8.75;;;;;7.07;81.04;101536.53;5017166;28;50852;-83
2022/12/19 04:08:20;;;;;;;;;14.25;10.75;;;;;7.07;81.34;101533.09;5017160;28;58669;-84
2022/12/19 04:11:00;;;;;;;;;10.75;9.00;;;;;7.06;80.97;101539.16;5017790;28;45347;-84
2022/12/19 04:13:33;;;;;;;;;11.00;10.00;;;;;7.03;80.98;101539.16;5001119;28;48216;-85
2022/12/19 04:16:10;;;;;;;;;11.50;7.50;;;;;7.02;81.23;101546.06;5017780;28;45755;-84
2022/12/19 04:18:38;;;;;;;;;11.75;8.75;;;;;7.02;81.27;101529.66;5017802;28;45461;-83
2022/12/19 04:21:16;;;;;;;;;19.00;9.00;;;;;7.03;81.21;101528.78;5017261;28;45678;-84
2022/12/19 04:23:53;;;;;;;;;10.75;7.25;;;;;7.00;81.16;101526.19;5017603;28;46591;-84
2022/12/19 04:26:20;;;;;;;;;12.00;7.75;;;;;6.98;81.18;101523.59;5017660;28;45260;-84
2022/12/19 04:28:49;;;;;;;;;7.50;7.50;;;;;6.95;81.45;101519.31;5017544;28;45334;-84
2022/12/19 04:31:15;;;;;;;;;11.25;9.00;;;;;6.95;81.11;101523.63;5035219;28;45277;-84
2022/12/19 04:33:41;;;;;;;;;10.00;8.00;;;;;6.94;81.02;101522.75;5017466;28;46353;-84
2022/12/19 04:36:07;;;;;;;;;12.50;11.25;;;;;6.92;81.41;101531.41;5034885;28;45439;-84
2022/12/19 04:38:32;;;;;;;;;14.00;7.50;;;;;6.90;81.41;101530.53;5000872;28;45397;-84
2022/12/19 04:40:57;;;;;;;;;12.50;9.00;;;;;6.88;81.57;101533.13;5017126;28;48553;-84
2022/12/19 04:43:23;;;;;;;;;13.25;11.25;;;;;6.87;82.07;101530.53;5016805;28;58248;-84
2022/12/19 04:45:48;;;;;;;;;16.00;9.00;;;;;6.87;81.69;101520.19;5034581;28;56419;-84
2022/12/19 04:48:13;;;;;;;;;9.00;6.25;;;;;6.85;81.86;101532.25;5016924;28;52930;-84
2022/12/19 04:50:39;;;;;;;;;12.75;8.00;;;;;6.88;81.61;101529.69;5018760;28;52492;-84
2022/12/19 04:53:05;;;;;;;;;13.25;11.00;;;;;6.88;81.78;101525.34;5020728;28;46218;-84
2022/12/19 04:55:30;;;;;;;;;10.25;8.25;;;;;6.91;82.18;101533.13;5020688;28;45433;-84
2022/12/19 04:57:56;;;;;;;;;13.25;9.00;;;;;6.93;81.96;101510.69;5038653;28;45340;-84
2022/12/19 05:00:21;;;;;;;;;10.75;8.50;;;;;6.95;82.13;101515.88;5020431;28;49914;-84
2022/12/19 05:02:47;;;;;;;;;16.00;8.00;;;;;6.93;82.02;101527.97;5020211;28;47160;-84
2022/12/19 05:05:12;;;;;;;;;12.50;9.50;;;;;6.93;82.13;101515.00;5037439;28;53435;-84
2022/12/19 05:07:39;;;;;;;;;18.25;8.75;;;;;6.93;81.96;101513.28;5038538;28;45488;-84
2022/12/19 05:10:05;;;;;;;;;11.00;8.75;;;;;6.94;81.70;101504.63;5020619;28;45421;-84
2022/12/19 05:12:31;;;;;;;;;11.50;11.50;;;;;6.94;82.03;101507.22;5038011;28;46531;-84
2022/12/19 05:14:56;;;;;;;;;12.25;10.00;;;;;6.94;82.21;101512.41;5002970;28;66815;-84
2022/12/19 05:17:21;;;;;;;;;13.00;9.25;;;;;6.93;81.79;101513.28;5019778;28;56860;-84
2022/12/19 05:19:48;;;;;;;;;14.00;8.00;;;;;6.94;82.20;101509.81;5019763;28;47897;-84
2022/12/19 05:22:13;;;;;;;;;11.50;10.75;;;;;6.96;82.27;101507.22;5037485;28;63382;-84
2022/12/19 05:24:38;;;;;;;;;13.75;9.25;;;;;6.97;82.19;101501.19;5037580;28;55222;-84
2022/12/19 05:27:04;;;;;;;;;15.25;10.75;;;;;6.98;81.92;101515.84;5038154;28;45321;-84
2022/12/19 05:29:29;;;;;;;;;13.50;8.50;;;;;6.96;82.43;101509.81;5003461;28;48563;-84
2022/12/19 05:31:54;;;;;;;;;13.25;8.25;;;;;6.95;82.24;101518.47;5020005;28;46186;-85
2022/12/19 05:34:20;;;;;;;;;12.25;8.75;;;;;6.95;82.09;101534.00;5019975;28;45409;-84
2022/12/19 05:36:45;;;;;;;;;14.00;8.50;;;;;6.95;82.03;101532.25;5019932;28;48563;-84
2022/12/19 05:39:10;;;;;;;;;15.25;9.25;;;;;6.97;82.64;101542.63;5020066;28;45394;-84
2022/12/19 05:41:36;;;;;;;;;7.25;7.00;;;;;6.98;82.43;101536.56;5019327;28;62092;-84
2022/12/19 05:44:01;;;;;;;;;17.00;8.25;;;;;6.98;82.41;101532.25;5019603;28;47304;-84
2022/12/19 05:46:27;;;;;;;;;9.25;8.50;;;;;7.00;82.57;101527.06;5020146;28;45441;-84
2022/12/19 05:48:52;;;;;;;;;12.00;9.00;;;;;7.01;82.59;101526.22;5037413;28;45322;-84
2022/12/19 05:51:18;;;;;;;;;13.50;7.75;;;;;7.01;82.23;101518.44;5019505;28;45599;-84
2022/12/19 05:53:43;;;;;;;;;8.50;6.25;;;;;7.01;82.29;101515.00;5003357;28;45625;-84
2022/12/19 05:56:14;;;;;;;;;13.00;8.25;;;;;7.01;82.55;101513.25;5019817;28;45399;-84
2022/12/19 05:58:41;;;;;;;;;11.25;7.75;;;;;7.04;82.63;101522.72;5037700;28;45409;-84
2022/12/19 06:01:15;;;;;;;;;11.00;7.50;;;;;7.04;82.75;101521.03;5037081;28;46328;-85
2022/12/19 06:03:41;;;;;;;;;10.00;7.50;;;;;7.05;82.72;101516.72;5019375;28;45409;-84
2022/12/19 06:06:10;;;;;;;;;6.00;3.50;;;;;7.06;82.86;101536.56;5019813;28;45318;-84
2022/12/19 06:08:35;;;;;;;;;8.75;8.00;;;;;7.07;82.85;101528.78;5019547;28;45620;-85
2022/12/19 06:11:02;;;;;;;;;13.25;6.50;;;;;7.07;82.74;101533.94;5019441;28;47176;-84
2022/12/19 06:13:28;;;;;;;;;10.25;7.00;;;;;7.08;82.85;101514.97;5019479;28;45346;-84
2022/12/19 06:16:03;;;;;;;;;6.25;6.25;;;;;7.07;82.63;101525.34;5019213;28;45326;-85
2022/12/19 06:18:28;;;;;;;;;9.25;7.50;;;;;7.08;82.59;101521.91;5037258;28;45362;-85
2022/12/19 06:21:03;;;;;;;;;8.25;6.00;;;;;7.08;82.93;101535.69;5019192;28;46143;-85
2022/12/19 06:23:30;;;;;;;;;14.00;9.00;;;;;7.10;82.59;101520.16;5008406;28;45871;-84
2022/12/19 06:25:56;;;;;;;;;8.25;5.00;;;;;7.09;82.56;101521.00;5015524;28;45998;-84
2022/12/19 06:28:22;;;;;;;;;6.25;5.50;;;;;7.10;83.02;101521.00;5019581;28;45439;-85
2022/12/19 06:30:47;;;;;;;;;5.75;4.25;;;;;7.11;83.20;101519.28;5036558;28;46402;-84
2022/12/19 06:33:13;;;;;;;;;7.50;6.00;;;;;7.13;83.40;101521.03;5036864;28;45350;-85
2022/12/19 06:35:38;;;;;;;;;9.50;7.25;;;;;7.16;82.93;101504.59;5002998;28;45439;-85
2022/12/19 06:38:03;;;;;;;;;7.50;5.25;;;;;7.17;83.22;101516.69;5036547;28;54031;-84
2022/12/19 06:43:13;;;;;;;;;10.25;6.75;;;;;7.23;83.20;101513.22;5002058;28;45825;-84
2022/12/19 06:45:38;;;;;;;;;9.00;7.50;;;;;7.24;83.25;101513.19;4982550;28;45413;-84
2022/12/19 06:48:03;;;;;;;;;9.00;8.25;;;;;7.25;83.25;101512.34;4981938;28;64066;-83
2022/12/19 06:50:32;;;;;;;;;9.25;8.00;;;;;7.25;83.20;101509.75;4982279;28;48653;-85
2022/12/19 06:52:57;;;;;;;;;10.75;7.25;;;;;7.28;83.19;101503.69;5015518;28;45290;-85
2022/12/19 06:55:22;;;;;;;;;18.75;8.00;;;;;7.32;83.06;101515.78;5016283;28;53691;-82
2022/12/19 06:57:48;;;;;;;;;9.00;7.50;;;;;7.36;82.67;101517.50;4981879;28;64139;-83
2022/12/19 07:00:14;;;;;;;;;8.00;5.00;;;;;7.37;82.95;101506.25;4998492;28;46019;-84
2022/12/19 07:02:43;;;;;;;;;12.50;7.50;;;;;7.38;82.59;101512.31;5016311;28;45493;-84
2022/12/19 07:05:09;;;;;;;;;10.00;7.50;;;;;7.38;82.64;101513.16;5015562;28;45458;-84
2022/12/19 07:07:35;;;;;;;;;11.50;9.00;;;;;7.40;82.58;101511.44;5016567;28;45352;-84
2022/12/19 07:10:03;;;;;;;;;9.25;5.25;;;;;7.41;82.73;101512.28;4998746;28;46641;-84
2022/12/19 07:12:28;;;;;;;;;5.50;5.50;;;;;7.40;82.71;101514.03;5014473;28;45614;-84
2022/12/19 07:14:54;;;;;;;;;8.75;8.00;;;;;7.42;82.56;101517.47;4998507;28;47318;-83
2022/12/19 07:17:20;;;;;;;;;6.00;6.00;;;;;7.43;82.91;101516.63;5014882;28;59471;-85
2022/12/19 07:19:46;;;;;;;;;9.00;6.25;;;;;7.43;82.90;101518.31;5015123;28;46210;-85
2022/12/19 07:22:11;;;;;;;;;8.50;6.00;;;;;7.42;82.45;101519.22;4998540;28;45312;-84
2022/12/19 07:24:37;;;;;;;;;14.25;7.50;;;;;7.44;82.42;101520.06;4998434;28;51770;-84
2022/12/19 07:27:02;;;;;;;;;11.75;6.00;;;;;7.46;82.52;101513.13;5014563;28;54455;-84
2022/12/19 07:29:28;;;;;;;;;10.00;8.00;;;;;7.45;82.29;101512.28;4997781;28;56603;-85
2022/12/19 07:31:53;;;;;;;;;4.50;4.50;;;;;7.45;81.57;101514.03;4998516;28;45343;-85
2022/12/19 07:34:18;;;;;;;;;9.50;6.00;;;;;7.44;81.90;101526.09;4998682;28;45399;-84
2022/12/19 07:36:44;;;;;;;;;8.25;7.00;;;;;7.47;82.54;101520.06;4998592;28;45533;-85
2022/12/19 07:39:09;;;;;;;;;5.00;5.00;;;;;7.48;81.98;101521.75;5014193;28;59562;-85
2022/12/19 07:41:36;;;;;;;;;7.00;6.00;;;;;7.51;81.89;101524.34;5022801;28;45520;-84
2022/12/19 07:44:01;;;;;;;;;9.75;6.00;;;;;7.54;81.79;101524.31;5017764;28;45295;-84
2022/12/19 07:46:28;;;;;;;;;8.00;5.00;;;;;7.56;81.88;101522.63;5001254;28;51437;-84
2022/12/19 07:48:54;;;;;;;;;7.50;6.00;;;;;7.55;81.94;101521.72;5035803;28;45503;-85
2022/12/19 07:51:19;;;;;;;;;8.00;6.00;;;;;7.59;81.72;101521.72;5017625;28;45988;-84
2022/12/19 07:53:44;;;;;;;;;8.50;4.25;;;;;7.59;81.58;101525.19;5017595;28;57441;-84
2022/12/19 07:56:10;;;;;;;;;8.75;8.00;;;;;7.61;81.17;101540.72;5035779;28;45499;-85
2022/12/19 07:58:35;;;;;;;;;7.25;7.25;;;;;7.63;81.14;101546.75;5017379;28;46293;-84
2022/12/19 08:01:01;;;;;;;;;8.00;7.00;;;;;7.65;81.15;101537.25;5035252;28;56403;-84
2022/12/19 08:03:27;;;;;;;;;9.75;6.00;;;;;7.67;80.88;101532.91;5035484;28;45364;-84
2022/12/19 08:05:58;;;;;;;;;8.00;5.75;;;;;7.70;81.13;101548.47;5017698;28;45367;-84
2022/12/19 08:08:24;;;;;;;;;9.75;9.00;;;;;7.72;80.61;101532.03;5017728;28;45828;-83
2022/12/19 08:10:49;;;;;;;;;6.00;5.00;;;;;7.76;80.89;101545.84;5034496;28;45646;-83
2022/12/19 08:13:15;;;;;;;;;7.00;5.75;;;;;7.78;80.64;101554.47;5017226;28;45388;-83
2022/12/19 08:15:40;;;;;;;;;11.75;7.50;;;;;7.82;80.66;101551.00;5000566;28;58490;-83
2022/12/19 08:18:05;;;;;;;;;5.75;5.75;;;;;7.86;80.21;101557.91;5016845;28;61166;-83
2022/12/19 08:20:30;;;;;;;;;8.50;6.00;;;;;7.89;80.26;101544.06;5035403;28;45476;-84
2022/12/19 08:22:56;;;;;;;;;8.25;7.00;;;;;7.90;80.18;101553.56;5034854;28;57660;-84
2022/12/19 08:25:21;;;;;;;;;8.00;5.00;;;;;7.94;80.15;101550.09;5020716;28;45541;-82
2022/12/19 08:27:46;;;;;;;;;11.00;7.50;;;;;7.95;79.85;101549.22;5020340;28;47475;-84
2022/12/19 08:30:12;;;;;;;;;11.50;6.00;;;;;7.98;79.99;101549.19;5020312;28;59539;-84
2022/12/19 08:32:38;;;;;;;;;8.75;5.25;;;;;7.99;79.81;101548.34;5021421;28;45324;-84
2022/12/19 08:35:05;;;;;;;;;12.75;8.00;;;;;8.02;80.05;101542.25;5021077;28;45537;-84
2022/12/19 08:37:30;;;;;;;;;16.75;8.00;;;;;8.07;79.38;101545.69;5038742;28;46499;-84
2022/12/19 08:39:56;;;;;;;;;8.00;5.00;;;;;8.12;79.29;101544.78;5003594;28;62327;-84
2022/12/19 08:42:21;;;;;;;;;6.00;5.00;;;;;8.20;79.28;101538.69;5019547;28;45473;-83
2022/12/19 08:44:46;;;;;;;;;11.50;5.75;;;;;8.25;79.29;101532.63;5037323;28;48888;-86
2022/12/19 08:47:12;;;;;;;;;6.00;5.00;;;;;8.34;78.66;101552.47;5004203;28;48041;-87
2022/12/19 08:49:37;;;;;;;;;11.00;5.00;;;;;8.39;78.27;101549.81;5003918;28;45460;-83
2022/12/19 08:52:08;;;;;;;;;7.50;5.00;;;;;8.46;78.39;101548.94;5038999;28;45364;-86
2022/12/19 08:54:33;;;;;;;;;9.00;6.50;;;;;8.52;78.29;101552.38;5021168;28;45517;-88
2022/12/19 08:56:59;;;;;;;;;8.75;4.75;;;;;8.58;78.18;101543.66;5020803;28;46081;-87
2022/12/19 08:59:24;;;;;;;;;6.25;5.00;;;;;8.67;78.05;101547.91;5003278;28;54768;-84
2022/12/19 09:01:50;;;;;;;;;9.00;5.25;;;;;8.74;77.51;101544.38;5020376;28;45264;-86
2022/12/19 09:04:15;;;;;;;;;5.50;5.50;;;;;8.79;77.14;101536.56;5020488;28;45412;-84
2022/12/19 09:06:40;;;;;;;;;2.00;2.00;;;;;8.84;77.28;101537.38;5021016;28;46348;-85
2022/12/19 09:09:06;;;;;;;;;6.50;5.75;;;;;8.89;77.35;101543.41;4992453;28;45364;-86
2022/12/19 09:11:31;;;;;;;;;9.00;6.50;;;;;8.93;76.53;101542.47;5011915;28;45351;-87
2022/12/19 09:13:57;;;;;;;;;6.25;5.00;;;;;8.98;76.83;101542.47;5020736;28;45402;-86
2022/12/19 09:16:24;;;;;;;;;9.00;5.75;;;;;9.00;76.47;101546.75;5020334;28;49533;-86
2022/12/19 09:18:51;;;;;;;;;11.25;7.25;;;;;9.07;76.74;101535.44;5038582;28;45825;-88
2022/12/19 09:21:19;;;;;;;;;6.50;5.75;;;;;9.10;76.09;101538.00;5020400;28;45395;-85
2022/12/19 09:23:56;;;;;;;;;8.50;7.00;;;;;9.14;75.78;101536.25;5000248;28;45558;-85
2022/12/19 09:26:24;;;;;;;;;10.00;5.00;;;;;9.17;75.98;101546.56;5018162;28;46265;-87
2022/12/19 09:28:53;;;;;;;;;8.50;6.00;;;;;9.19;75.77;101552.63;5005859;28;45742;-86
2022/12/19 09:31:20;;;;;;;;;6.00;4.00;;;;;9.21;75.82;101557.81;5003587;28;45402;-84
2022/12/19 09:33:46;;;;;;;;;5.75;3.25;;;;;9.23;75.57;101562.13;5037609;28;45372;-87
2022/12/19 09:36:25;;;;;;;;;7.00;6.00;;;;;9.23;75.51;101571.63;5019422;28;46831;-85
2022/12/19 09:38:55;;;;;;;;;8.25;6.00;;;;;9.23;74.92;101580.31;5020342;28;45390;-85
2022/12/19 09:41:33;;;;;;;;;7.50;6.00;;;;;9.26;75.24;101571.63;5013894;28;45681;-84
2022/12/19 09:44:14;;;;;;;;;1.00;1.00;;;;;9.26;75.11;101588.06;5014537;28;45565;-86
2022/12/19 09:46:49;;;;;;;;;7.00;5.00;;;;;9.25;74.69;101582.91;5001814;28;46205;-84
2022/12/19 09:49:22;;;;;;;;;8.75;8.25;;;;;9.23;75.03;101585.50;5037000;28;45299;-85
2022/12/19 09:52:09;;;;;;;;;5.00;5.00;;;;;9.23;74.87;101584.63;5011110;28;45482;-84
2022/12/19 09:54:42;;;;;;;;;9.00;6.75;;;;;9.22;74.68;101583.78;5008915;28;45346;-85
2022/12/19 09:57:25;;;;;;;;;6.50;6.25;;;;;9.22;75.03;101582.91;5018760;28;45464;-83
2022/12/19 09:59:55;;;;;;;;;6.75;6.00;;;;;9.21;74.68;101569.06;5019116;28;45395;-84
2022/12/19 10:02:40;;;;;;;;;11.00;6.75;;;;;9.20;74.82;101569.09;5019333;28;45505;-85
2022/12/19 10:05:43;;;;;;;;;9.00;6.00;;;;;9.20;74.49;101569.94;5037786;28;45471;-84
2022/12/19 10:08:18;;;;;;;;;8.50;6.75;;;;;9.24;74.21;101565.56;5022872;28;47165;-84
2022/12/19 10:11:05;;;;;;;;;8.50;6.00;;;;;9.26;74.30;101566.41;5015242;28;45818;-83
2022/12/19 10:13:49;;;;;;;;;11.25;7.00;;;;;9.31;74.05;101569.84;5035394;28;45342;-82
2022/12/19 10:16:23;;;;;;;;;9.50;5.50;;;;;9.38;74.91;101558.50;5035882;28;45479;-83
2022/12/19 10:19:02;;;;;;;;;8.00;5.25;;;;;9.45;74.16;101554.09;5027415;28;47013;-82
2022/12/19 10:21:40;;;;;;;;;3.00;3.00;;;;;9.48;73.62;101562.72;5012863;28;45898;-87
2022/12/19 10:24:35;;;;;;;;;9.50;5.25;;;;;9.54;73.93;101560.91;5033658;28;45496;-86
2022/12/19 10:27:10;;;;;;;;;8.50;6.00;;;;;9.57;74.04;101555.69;4930845;28;45749;-84
2022/12/19 10:29:41;;;;;;;;;5.75;5.00;;;;;9.60;73.83;101555.66;4932281;28;48214;-85
2022/12/19 10:32:31;;;;;;;;;6.75;5.25;;;;;9.62;73.99;101548.69;4923995;28;45788;-84
2022/12/19 10:34:56;;;;;;;;;9.00;7.25;;;;;9.62;73.55;101549.56;4919844;28;45419;-86
2022/12/19 10:37:24;;;;;;;;;10.50;5.50;;;;;9.65;73.63;101548.66;4906910;28;45538;-86
2022/12/19 10:39:52;;;;;;;;;6.50;6.00;;;;;9.69;73.85;101552.94;4917631;28;48161;-86
2022/12/19 10:42:42;;;;;;;;;9.50;5.75;;;;;9.73;73.34;101553.75;4929629;28;45660;-88
2022/12/19 10:45:23;;;;;;;;;6.50;6.50;;;;;9.76;73.15;101553.72;4934618;28;45605;-83
2022/12/19 10:47:51;;;;;;;;;8.50;4.50;;;;;9.78;73.22;101552.81;4925196;28;45530;-85
2022/12/19 10:50:21;;;;;;;;;2.00;2.00;;;;;9.81;72.87;101558.00;4919325;28;45654;-86
2022/12/19 10:52:52;;;;;;;;;6.50;4.00;;;;;9.86;73.45;101563.13;4935100;28;45533;-84
2022/12/19 10:55:41;;;;;;;;;4.00;4.00;;;;;9.88;73.13;101554.44;4935014;28;45384;-85
2022/12/19 10:58:20;;;;;;;;;9.50;5.75;;;;;9.91;72.76;101542.28;4914530;28;45499;-85
2022/12/19 11:01:14;;;;;;;;;6.00;5.00;;;;;9.93;72.70;101536.16;4932633;28;45448;-85
2022/12/19 11:03:42;;;;;;;;;6.25;3.00;;;;;9.94;72.81;101535.28;4961054;28;45970;-85
2022/12/19 11:06:35;;;;;;;;;5.00;5.00;;;;;9.97;72.83;101527.44;5018131;28;45760;-85
2022/12/19 11:09:17;;;;;;;;;5.75;5.00;;;;;10.00;73.00;101539.56;5035231;28;45681;-85
2022/12/19 11:11:43;;;;;;;;;3.00;3.00;;;;;10.01;72.36;101531.72;5012653;28;47436;-86
2022/12/19 11:14:29;;;;;;;;;6.00;3.00;;;;;10.05;72.52;101525.59;5000944;28;45813;-85
2022/12/19 11:16:54;;;;;;;;;7.00;3.00;;;;;10.10;72.74;101524.66;5035617;28;45466;-84
2022/12/19 11:19:34;;;;;;;;;4.50;4.50;;;;;10.19;72.13;101520.19;5016056;28;56943;-83
2022/12/19 11:22:07;;;;;;;;;5.00;4.50;;;;;10.25;72.10;101521.81;5034803;28;47213;-85
2022/12/19 11:24:40;;;;;;;;;7.00;3.00;;;;;10.33;72.09;101522.63;5017381;28;45347;-83
2022/12/19 11:27:42;;;;;;;;;5.00;3.00;;;;;10.42;72.14;101521.63;5001088;28;45510;-84
2022/12/19 11:30:14;;;;;;;;;4.50;2.50;;;;;10.47;71.74;101522.41;4994411;28;45649;-83
2022/12/19 11:32:41;;;;;;;;;6.25;2.00;;;;;10.53;71.44;101516.22;5034960;28;46437;-83
2022/12/19 11:35:17;;;;;;;;;3.00;2.50;;;;;10.59;71.40;101513.53;5016358;28;45717;-84
2022/12/19 11:38:04;;;;;;;;;2.00;2.00;;;;;10.64;71.54;101514.31;5035394;28;45907;-84
2022/12/19 11:40:34;;;;;;;;;2.75;2.75;;;;;10.70;71.37;101518.53;5012987;28;45740;-83
2022/12/19 11:43:11;;;;;;;;;2.25;2.25;;;;;10.72;70.82;101506.38;5000635;28;48304;-84
2022/12/19 11:45:42;;;;;;;;;5.50;2.75;;;;;10.74;70.75;101494.19;5034716;28;45255;-84